METAR Data
IDs: Format: Raw Decoded Include TAF

Data at: 0752 UTC 09 Apr 2020

METAR for:KHCR (Heber City Muni, UT, US)
Text:KHCR 090735Z AUTO 00000KT 10SM CLR 04/M03 A3006 RMK AO2
Temperature: 4.0°C ( 39°F)
Dewpoint: -3.0°C ( 27°F) [RH = 60%]
Pressure (altimeter):30.06 inches Hg (1018.0 mb)
Winds:calm
Visibility:10 or more sm (16+ km)
Ceiling:at least 12,000 feet AGL
Clouds:sky clear below 12,000 feet AGL
QC Flag:automated observation with no human augmentation